createdAt,value
2022-11-23T00:00:49.292Z,94.08
2022-11-23T00:03:17.348Z,93.97
2022-11-23T00:05:46.555Z,94.29
2022-11-23T00:08:14.504Z,94.15
2022-11-23T00:10:42.505Z,94.38
2022-11-23T00:13:10.289Z,94.41
2022-11-23T00:15:38.198Z,94.47
2022-11-23T00:18:06.268Z,94.25
2022-11-23T00:20:34.128Z,94.21
2022-11-23T00:23:03.391Z,94.84
2022-11-23T00:25:31.286Z,94.98
2022-11-23T00:27:59.080Z,94.74
2022-11-23T00:30:27.013Z,94.14
2022-11-23T00:32:55.608Z,94.35
2022-11-23T00:35:23.495Z,94.82
2022-11-23T00:37:51.403Z,94.22
2022-11-23T00:40:20.753Z,94.66
2022-11-23T00:42:48.562Z,94.52
2022-11-23T00:45:16.547Z,94.42
2022-11-23T00:47:44.460Z,94.30
2022-11-23T00:50:12.246Z,93.72
2022-11-23T00:52:40.122Z,94.04
2022-11-23T00:55:08.877Z,93.93
2022-11-23T00:57:38.039Z,94.17
2022-11-23T01:00:07.948Z,94.08
2022-11-23T01:02:36.688Z,93.25
2022-11-23T01:05:04.681Z,93.58
2022-11-23T01:07:32.711Z,93.17
2022-11-23T01:10:00.723Z,93.72
2022-11-23T01:12:30.775Z,93.07
2022-11-23T01:14:59.994Z,93.44
2022-11-23T01:17:27.892Z,92.91
2022-11-23T01:19:55.684Z,93.23
2022-11-23T01:22:23.626Z,93.58
2022-11-23T01:24:52.173Z,92.81
2022-11-23T01:27:19.984Z,93.27
2022-11-23T01:29:48.045Z,92.95
2022-11-23T01:32:17.467Z,93.12
2022-11-23T01:34:45.308Z,93.53
2022-11-23T01:37:13.276Z,93.22
2022-11-23T01:39:41.257Z,93.63
2022-11-23T01:42:10.921Z,93.68
2022-11-23T01:44:43.240Z,93.47
2022-11-23T01:47:12.082Z,93.16
2022-11-23T01:49:44.995Z,93.09
2022-11-23T01:52:17.155Z,93.13
2022-11-23T01:54:48.132Z,93.93
2022-11-23T01:57:22.466Z,93.75
2022-11-23T01:59:52.144Z,93.66
2022-11-23T02:02:20.672Z,93.68
2022-11-23T02:04:52.484Z,93.45
2022-11-23T02:07:21.670Z,93.24
2022-11-23T02:09:50.172Z,92.65
2022-11-23T02:12:18.193Z,92.96
2022-11-23T02:14:47.024Z,92.34
2022-11-23T02:17:15.189Z,92.58
2022-11-23T02:19:55.585Z,92.25
2022-11-23T02:22:28.036Z,92.17
2022-11-23T02:24:57.004Z,91.47
2022-11-23T02:27:28.030Z,91.29
2022-11-23T02:29:58.525Z,90.70
2022-11-23T02:32:27.270Z,90.38
2022-11-23T02:34:55.096Z,90.51
2022-11-23T02:37:23.196Z,89.81
2022-11-23T02:39:53.226Z,89.81
2022-11-23T02:42:21.336Z,89.66
2022-11-23T02:45:00.663Z,88.74
2022-11-23T02:47:28.605Z,88.67
2022-11-23T02:49:56.529Z,88.53
2022-11-23T02:52:24.608Z,87.65
2022-11-23T02:54:52.396Z,87.40
2022-11-23T02:57:20.332Z,87.14
2022-11-23T02:59:48.261Z,87.17
2022-11-23T03:02:17.451Z,87.29
2022-11-23T03:04:45.379Z,86.56
2022-11-23T03:07:13.389Z,87.41
2022-11-23T03:09:41.284Z,86.43
2022-11-23T03:12:09.335Z,86.72
2022-11-23T03:14:38.794Z,86.24
2022-11-23T03:17:09.066Z,86.72
2022-11-23T03:19:38.337Z,86.15
2022-11-23T03:22:06.271Z,85.90
2022-11-23T03:24:34.192Z,86.11
2022-11-23T03:27:02.285Z,85.31
2022-11-23T03:29:30.635Z,85.30
2022-11-23T03:31:58.602Z,85.35
2022-11-23T03:34:26.596Z,85.26
2022-11-23T03:36:55.878Z,85.17
2022-11-23T03:39:23.672Z,85.37
2022-11-23T03:41:51.779Z,85.30
2022-11-23T03:44:19.692Z,85.77
2022-11-23T03:46:47.528Z,85.63
2022-11-23T03:49:15.468Z,85.77
2022-11-23T03:51:43.498Z,85.30
2022-11-23T03:54:12.740Z,85.89
2022-11-23T03:56:40.652Z,85.50
2022-11-23T03:59:08.640Z,85.93
2022-11-23T04:01:36.436Z,85.32
2022-11-23T04:04:04.403Z,85.91
2022-11-23T04:06:32.391Z,85.21
2022-11-23T04:09:02.321Z,85.71
2022-11-23T04:11:31.886Z,85.63
2022-11-23T04:13:59.780Z,85.18
2022-11-23T04:16:27.577Z,84.92
2022-11-23T04:18:55.595Z,85.33
2022-11-23T04:21:23.495Z,84.77
2022-11-23T04:23:51.309Z,85.08
2022-11-23T04:26:19.311Z,84.71
2022-11-23T04:28:48.560Z,84.81
2022-11-23T04:31:16.364Z,84.41
2022-11-23T04:33:44.291Z,84.85
2022-11-23T04:36:12.201Z,84.84
2022-11-23T04:38:40.000Z,84.88
2022-11-23T04:41:07.966Z,84.70
2022-11-23T04:43:35.839Z,84.32
2022-11-23T04:46:05.120Z,84.26
2022-11-23T04:48:33.211Z,84.57
2022-11-23T04:51:01.070Z,84.54
2022-11-23T04:53:28.949Z,84.26
2022-11-23T04:55:57.288Z,84.26
2022-11-23T04:58:26.834Z,84.40
2022-11-23T05:00:55.781Z,84.10
2022-11-23T05:03:25.271Z,84.04
2022-11-23T05:05:53.128Z,84.07
2022-11-23T05:08:21.004Z,84.34
2022-11-23T05:10:49.012Z,84.45
2022-11-23T05:13:16.886Z,84.44
2022-11-23T05:15:44.671Z,84.18
2022-11-23T05:18:13.549Z,84.38
2022-11-23T05:20:42.883Z,84.64
2022-11-23T05:23:11.117Z,84.35
2022-11-23T05:25:39.453Z,85.05
2022-11-23T05:28:23.280Z,84.65
2022-11-23T05:30:55.435Z,84.58
2022-11-23T05:33:23.292Z,85.12
2022-11-23T05:35:52.542Z,85.37
2022-11-23T05:38:20.492Z,85.22
2022-11-23T05:40:48.468Z,84.99
2022-11-23T05:43:16.288Z,85.15
2022-11-23T05:45:44.194Z,85.68
2022-11-23T05:48:12.163Z,85.34
2022-11-23T05:50:40.038Z,85.70
2022-11-23T05:53:10.409Z,85.85
2022-11-23T05:55:39.067Z,86.00
2022-11-23T05:58:06.880Z,86.07
2022-11-23T06:00:34.793Z,86.17
2022-11-23T06:03:03.479Z,86.00
2022-11-23T06:05:31.792Z,86.70
2022-11-23T06:07:59.747Z,87.25
2022-11-23T06:10:29.209Z,87.52
2022-11-23T06:12:57.711Z,87.68
2022-11-23T06:15:25.646Z,88.02
2022-11-23T06:17:53.971Z,89.23
2022-11-23T06:20:21.863Z,89.12
2022-11-23T06:22:53.176Z,89.86
2022-11-23T06:25:21.180Z,90.36
2022-11-23T06:27:56.068Z,90.66
2022-11-23T06:30:24.203Z,91.02
2022-11-23T06:32:52.441Z,91.42
2022-11-23T06:35:20.564Z,91.95
2022-11-23T06:37:49.414Z,92.50
2022-11-23T06:40:18.000Z,92.84
2022-11-23T06:42:46.084Z,92.81
2022-11-23T06:45:15.766Z,93.86
2022-11-23T06:47:44.136Z,94.12
2022-11-23T06:50:14.511Z,94.31
2022-11-23T06:52:42.418Z,94.29
2022-11-23T06:55:10.613Z,94.93
2022-11-23T06:57:38.589Z,95.26
2022-11-23T07:00:07.840Z,95.17
2022-11-23T07:02:36.984Z,95.77
2022-11-23T07:05:05.113Z,95.66
2022-11-23T07:07:33.117Z,95.68
2022-11-23T07:10:06.628Z,95.90
2022-11-23T07:12:35.242Z,96.42
2022-11-23T07:15:03.078Z,96.99
2022-11-23T07:17:30.950Z,97.06
2022-11-23T07:20:00.475Z,97.53
2022-11-23T07:22:28.258Z,97.17
2022-11-23T07:24:56.056Z,97.73
2022-11-23T07:27:24.238Z,98.10
2022-11-23T07:29:52.031Z,98.13
2022-11-23T07:32:19.853Z,98.43
2022-11-23T07:34:48.005Z,98.77
2022-11-23T07:37:17.228Z,98.62
2022-11-23T07:40:01.045Z,99.16
2022-11-23T07:42:36.828Z,98.69
2022-11-23T07:45:09.839Z,98.58
2022-11-23T07:47:38.456Z,99.15
2022-11-23T07:50:07.922Z,98.84
2022-11-23T07:52:37.604Z,99.18
2022-11-23T07:55:07.148Z,99.57
2022-11-23T07:57:34.949Z,99.93
2022-11-23T08:00:03.090Z,99.79
2022-11-23T08:02:31.255Z,99.59
2022-11-23T08:04:59.067Z,99.39
2022-11-23T08:07:27.021Z,99.43
2022-11-23T08:09:56.308Z,99.86
2022-11-23T08:12:24.104Z,99.82
2022-11-23T08:14:52.253Z,99.25
2022-11-23T08:17:20.184Z,99.43
2022-11-23T08:19:48.198Z,99.46
2022-11-23T08:22:16.749Z,98.72
2022-11-23T08:24:44.655Z,98.58
2022-11-23T08:27:13.796Z,98.89
2022-11-23T08:29:41.678Z,98.68
2022-11-23T08:32:09.563Z,98.71
2022-11-23T08:34:37.356Z,99.37
2022-11-23T08:37:05.223Z,99.59
2022-11-23T08:39:33.080Z,99.08
2022-11-23T08:42:00.869Z,98.97
2022-11-23T08:44:30.791Z,99.59
2022-11-23T08:46:58.835Z,99.94
2022-11-23T08:49:26.655Z,99.54
2022-11-23T08:51:54.796Z,100.00
2022-11-23T08:54:24.376Z,100.00
2022-11-23T08:56:52.359Z,100.00
2022-11-23T08:59:20.433Z,100.00
2022-11-23T09:01:49.845Z,100.00
2022-11-23T09:04:20.660Z,100.00
2022-11-23T09:06:48.927Z,100.00
2022-11-23T09:09:16.833Z,100.00
2022-11-23T09:11:44.695Z,100.00
2022-11-23T09:14:15.427Z,100.00
2022-11-23T09:16:43.465Z,100.00
2022-11-23T09:19:14.900Z,100.00
2022-11-23T09:21:43.343Z,100.00
2022-11-23T09:24:12.160Z,100.00
2022-11-23T09:26:40.613Z,100.00
2022-11-23T09:29:09.600Z,100.00
2022-11-23T09:31:37.870Z,100.00
2022-11-23T09:34:06.276Z,100.00
2022-11-23T09:36:35.475Z,100.00
2022-11-23T09:39:03.422Z,100.00
2022-11-23T09:42:05.173Z,100.00
2022-11-23T09:44:46.288Z,100.00
2022-11-23T09:47:30.296Z,100.00
2022-11-23T09:50:05.092Z,100.00
2022-11-23T09:52:36.537Z,100.00
2022-11-23T09:55:12.447Z,100.00
2022-11-23T09:57:43.378Z,100.00
2022-11-23T10:00:19.898Z,100.00
2022-11-23T10:02:48.487Z,100.00
2022-11-23T10:05:19.591Z,100.00
2022-11-23T10:08:02.414Z,100.00
2022-11-23T10:10:42.811Z,100.00
2022-11-23T10:13:27.028Z,100.00
2022-11-23T10:16:15.088Z,100.00
2022-11-23T10:18:52.039Z,100.00
2022-11-23T10:21:30.449Z,100.00
2022-11-23T10:24:11.907Z,100.00
2022-11-23T10:26:42.638Z,100.00
2022-11-23T10:29:16.683Z,100.00
2022-11-23T10:31:50.486Z,100.00
2022-11-23T10:34:32.254Z,100.00
2022-11-23T10:37:00.334Z,100.00
2022-11-23T10:39:31.618Z,100.00
2022-11-23T10:42:07.313Z,100.00
2022-11-23T10:44:39.011Z,100.00
2022-11-23T10:47:06.953Z,100.00
2022-11-23T10:49:36.844Z,100.00
2022-11-23T10:52:06.292Z,100.00
2022-11-23T10:54:40.549Z,100.00
2022-11-23T10:57:27.040Z,100.00
2022-11-23T11:00:00.625Z,100.00
2022-11-23T11:02:28.743Z,100.00
2022-11-23T11:05:15.681Z,100.00
2022-11-23T11:07:43.708Z,100.00
2022-11-23T11:13:26.126Z,100.00
2022-11-23T11:15:59.421Z,100.00
2022-11-23T11:18:30.683Z,100.00
2022-11-23T11:21:01.859Z,100.00
2022-11-23T11:23:31.862Z,100.00
2022-11-23T11:26:10.210Z,100.00
2022-11-23T11:28:42.567Z,100.00
2022-11-23T11:31:38.568Z,100.00
2022-11-23T11:34:16.445Z,100.00
2022-11-23T11:36:51.631Z,100.00
2022-11-23T11:39:27.188Z,100.00
2022-11-23T11:41:59.500Z,100.00
2022-11-23T11:44:33.377Z,100.00
2022-11-23T11:47:05.966Z,100.00
2022-11-23T11:49:41.426Z,100.00
2022-11-23T11:52:14.972Z,100.00
2022-11-23T11:54:50.479Z,100.00
2022-11-23T11:57:22.444Z,100.00
2022-11-23T11:59:57.819Z,100.00
2022-11-23T12:02:28.565Z,100.00
2022-11-23T12:05:05.220Z,100.00
2022-11-23T12:07:36.136Z,100.00
2022-11-23T12:10:14.145Z,100.00
2022-11-23T12:12:42.033Z,100.00
2022-11-23T12:15:47.640Z,100.00
2022-11-23T12:18:29.399Z,100.00
2022-11-23T12:21:04.510Z,100.00
2022-11-23T12:23:46.064Z,100.00
2022-11-23T12:26:22.461Z,100.00
2022-11-23T12:29:17.866Z,100.00
2022-11-23T12:31:52.160Z,100.00
2022-11-23T12:34:59.136Z,100.00
2022-11-23T12:37:40.550Z,100.00
2022-11-23T12:40:20.793Z,100.00
2022-11-23T12:42:52.830Z,100.00
2022-11-23T12:45:37.012Z,100.00
2022-11-23T12:48:21.536Z,100.00
2022-11-23T12:51:01.607Z,100.00
2022-11-23T12:53:43.164Z,100.00
2022-11-23T12:56:21.318Z,100.00
2022-11-23T12:58:51.912Z,100.00
2022-11-23T13:01:29.345Z,100.00
2022-11-23T13:04:26.251Z,100.00
2022-11-23T13:07:29.389Z,100.00
2022-11-23T13:10:21.113Z,100.00
2022-11-23T13:13:15.977Z,100.00
2022-11-23T13:16:09.931Z,100.00
2022-11-23T13:18:51.461Z,100.00
2022-11-23T13:21:28.712Z,100.00
2022-11-23T13:23:56.552Z,100.00
2022-11-23T13:26:25.939Z,100.00
2022-11-23T13:28:56.875Z,100.00
2022-11-23T13:31:28.461Z,100.00
2022-11-23T13:33:58.656Z,100.00
2022-11-23T13:37:11.684Z,100.00
2022-11-23T13:40:06.506Z,100.00
2022-11-23T13:42:36.135Z,100.00
2022-11-23T13:45:26.115Z,100.00
2022-11-23T13:48:41.311Z,100.00
2022-11-23T13:51:05.607Z,100.00
2022-11-23T13:53:36.831Z,100.00
2022-11-23T13:56:27.279Z,100.00
2022-11-23T13:58:56.662Z,100.00
2022-11-23T14:02:03.270Z,100.00
2022-11-23T14:04:32.973Z,100.00
2022-11-23T14:07:07.183Z,100.00
2022-11-23T14:09:44.698Z,100.00
2022-11-23T14:12:23.003Z,100.00
2022-11-23T14:15:03.256Z,100.00
2022-11-23T14:17:59.703Z,99.83
2022-11-23T14:20:55.728Z,100.00
2022-11-23T14:23:47.647Z,99.83
2022-11-23T14:26:36.374Z,99.66
2022-11-23T14:29:21.628Z,99.88
2022-11-23T14:32:13.162Z,99.87
2022-11-23T14:34:52.033Z,99.16
2022-11-23T14:37:28.294Z,99.97
2022-11-23T14:40:04.529Z,99.48
2022-11-23T14:42:39.588Z,99.14
2022-11-23T14:45:08.613Z,98.91
2022-11-23T14:47:36.631Z,99.03
2022-11-23T14:50:04.596Z,99.45
2022-11-23T14:52:36.167Z,99.30
2022-11-23T14:55:07.412Z,98.77
2022-11-23T14:57:43.476Z,99.19
2022-11-23T15:00:25.807Z,99.15
2022-11-23T15:02:55.484Z,99.01
2022-11-23T15:05:28.143Z,99.18
2022-11-23T15:08:01.949Z,99.28
2022-11-23T15:10:47.416Z,99.17
2022-11-23T15:13:22.571Z,98.82
2022-11-23T15:15:53.575Z,98.53
2022-11-23T15:18:29.485Z,99.18
2022-11-23T15:20:59.856Z,98.90
2022-11-23T15:23:34.555Z,98.65
2022-11-23T15:26:05.830Z,98.58
2022-11-23T15:28:38.324Z,98.86
2022-11-23T15:31:19.543Z,99.17
2022-11-23T15:33:50.671Z,98.97
2022-11-23T15:36:25.500Z,98.83
2022-11-23T15:38:55.610Z,98.77
2022-11-23T15:41:24.708Z,98.42
2022-11-23T15:43:55.487Z,98.23
2022-11-23T15:46:26.704Z,98.15
2022-11-23T15:48:56.484Z,98.26
2022-11-23T15:51:27.953Z,98.05
2022-11-23T15:53:56.350Z,98.67
2022-11-23T15:56:28.084Z,98.00
2022-11-23T15:58:59.679Z,97.93
2022-11-23T16:01:27.898Z,98.09
2022-11-23T16:04:01.358Z,97.96
2022-11-23T16:06:38.318Z,98.58
2022-11-23T16:09:53.505Z,98.37
2022-11-23T16:12:28.389Z,97.81
2022-11-23T16:14:58.803Z,97.57
2022-11-23T16:17:30.350Z,97.74
2022-11-23T16:19:59.650Z,98.11
2022-11-23T16:22:32.015Z,97.40
2022-11-23T16:25:08.044Z,97.48
2022-11-23T16:27:40.411Z,97.38
2022-11-23T16:30:24.809Z,97.12
2022-11-23T16:32:53.041Z,97.25
2022-11-23T16:35:22.034Z,96.93
2022-11-23T16:37:50.066Z,96.77
2022-11-23T16:40:18.248Z,96.85
2022-11-23T16:42:47.212Z,97.13
2022-11-23T16:45:16.865Z,97.04
2022-11-23T16:47:53.940Z,96.79
2022-11-23T16:50:22.347Z,96.52
2022-11-23T16:52:50.308Z,97.25
2022-11-23T16:55:18.171Z,97.27
2022-11-23T16:57:46.947Z,96.51
2022-11-23T17:00:19.012Z,96.69
2022-11-23T17:02:46.967Z,96.19
2022-11-23T17:05:16.638Z,96.43
2022-11-23T17:07:44.877Z,97.09
2022-11-23T17:10:14.157Z,96.49
2022-11-23T17:12:48.572Z,96.87
2022-11-23T17:15:20.328Z,96.84
2022-11-23T17:17:48.363Z,97.26
2022-11-23T17:20:17.419Z,97.69
2022-11-23T17:22:46.024Z,97.98
2022-11-23T17:25:15.181Z,98.35
2022-11-23T17:27:43.914Z,98.49
2022-11-23T17:30:16.035Z,97.95
2022-11-23T17:32:45.364Z,98.26
2022-11-23T17:35:13.146Z,98.82
2022-11-23T17:37:41.135Z,98.64
2022-11-23T17:40:14.886Z,98.99
2022-11-23T17:42:43.849Z,98.84
2022-11-23T17:45:12.699Z,98.71
2022-11-23T17:47:42.129Z,99.37
2022-11-23T17:50:17.730Z,99.04
2022-11-23T17:52:46.578Z,99.13
2022-11-23T17:55:24.876Z,99.54
2022-11-23T17:57:52.966Z,99.64
2022-11-23T18:00:22.698Z,99.52
2022-11-23T18:02:52.108Z,99.81
2022-11-23T18:05:22.189Z,99.21
2022-11-23T18:07:50.534Z,99.82
2022-11-23T18:10:18.611Z,99.24
2022-11-23T18:12:46.698Z,98.90
2022-11-23T18:15:15.099Z,99.89
2022-11-23T18:17:42.926Z,99.11
2022-11-23T18:20:12.015Z,99.07
2022-11-23T18:22:41.348Z,99.21
2022-11-23T18:25:11.182Z,99.36
2022-11-23T18:27:39.041Z,99.33
2022-11-23T18:30:08.388Z,99.09
2022-11-23T18:32:36.201Z,99.08
2022-11-23T18:35:05.257Z,98.68
2022-11-23T18:37:34.864Z,99.08
2022-11-23T18:40:04.872Z,99.03
2022-11-23T18:42:32.809Z,98.35
2022-11-23T18:45:01.205Z,98.50
2022-11-23T18:47:29.023Z,97.86
2022-11-23T18:49:59.733Z,97.93
2022-11-23T18:52:31.864Z,97.64
2022-11-23T18:55:00.732Z,97.32
2022-11-23T18:57:30.229Z,97.39
2022-11-23T18:59:58.989Z,97.63
2022-11-23T19:02:27.393Z,97.27
2022-11-23T19:04:55.240Z,97.88
2022-11-23T19:07:27.180Z,97.69
2022-11-23T19:09:55.416Z,97.25
2022-11-23T19:12:24.612Z,97.38
2022-11-23T19:14:53.953Z,97.17
2022-11-23T19:17:22.002Z,96.98
2022-11-23T19:19:49.793Z,96.60
2022-11-23T19:22:17.676Z,96.36
2022-11-23T19:24:45.515Z,96.27
2022-11-23T19:27:13.320Z,96.64
2022-11-23T19:29:41.204Z,96.58
2022-11-23T19:32:11.876Z,96.54
2022-11-23T19:34:39.664Z,96.16
2022-11-23T19:37:07.561Z,96.16
2022-11-23T19:39:38.263Z,96.74
2022-11-23T19:42:06.191Z,96.83
2022-11-23T19:44:34.159Z,95.94
2022-11-23T19:47:03.737Z,95.81
2022-11-23T19:49:34.824Z,95.57
2022-11-23T19:52:03.844Z,95.54
2022-11-23T19:54:31.630Z,95.83
2022-11-23T19:56:59.459Z,95.72
2022-11-23T19:59:27.841Z,96.12
2022-11-23T20:01:55.710Z,96.10
2022-11-23T20:04:23.616Z,96.21
2022-11-23T20:06:52.992Z,96.79
2022-11-23T20:09:22.527Z,96.40
2022-11-23T20:11:51.560Z,97.09
2022-11-23T20:14:20.503Z,96.99
2022-11-23T20:16:48.755Z,97.01
2022-11-23T20:19:16.552Z,97.24
2022-11-23T20:21:44.560Z,96.74
2022-11-23T20:24:15.057Z,96.87
2022-11-23T20:26:43.944Z,96.75
2022-11-23T20:29:13.814Z,97.35
2022-11-23T20:31:41.776Z,97.38
2022-11-23T20:34:14.135Z,97.15
2022-11-23T20:36:45.760Z,97.41
2022-11-23T20:39:16.195Z,97.23
2022-11-23T20:41:45.087Z,97.05
2022-11-23T20:44:14.900Z,96.94
2022-11-23T20:49:32.151Z,96.38
2022-11-23T20:52:00.349Z,96.83
2022-11-23T20:54:29.532Z,97.11
2022-11-23T20:57:00.480Z,96.76
2022-11-23T20:59:28.572Z,96.81
2022-11-23T21:01:56.693Z,96.41
2022-11-23T21:04:25.162Z,96.69
2022-11-23T21:06:53.114Z,96.65
2022-11-23T21:09:21.057Z,96.75
2022-11-23T21:12:08.147Z,96.19
2022-11-23T21:14:37.101Z,96.38
2022-11-23T21:17:05.480Z,96.10
2022-11-23T21:19:35.119Z,96.00
2022-11-23T21:22:05.827Z,96.14
2022-11-23T21:24:35.128Z,95.78
2022-11-23T21:27:06.170Z,96.29
2022-11-23T21:29:34.307Z,96.05
2022-11-23T21:32:02.779Z,96.26
2022-11-23T21:34:31.843Z,96.19
2022-11-23T21:37:00.175Z,96.08
2022-11-23T21:39:31.073Z,95.88
2022-11-23T21:41:59.008Z,95.59
2022-11-23T21:44:28.226Z,96.01
2022-11-23T21:46:56.410Z,95.80
2022-11-23T21:49:24.452Z,96.18
2022-11-23T21:51:52.247Z,95.30
2022-11-23T21:54:20.266Z,95.40
2022-11-23T21:56:48.716Z,95.41
2022-11-23T21:59:16.769Z,95.79
2022-11-23T22:01:46.433Z,95.85
2022-11-23T22:04:17.211Z,95.59
2022-11-23T22:06:45.759Z,95.69
2022-11-23T22:09:14.409Z,95.83
2022-11-23T22:11:44.558Z,96.00
2022-11-23T22:14:14.132Z,96.34
2022-11-23T22:16:43.882Z,95.92
2022-11-23T22:19:15.195Z,96.54
2022-11-23T22:21:45.066Z,96.33
2022-11-23T22:24:15.273Z,96.52
2022-11-23T22:26:43.830Z,96.63
2022-11-23T22:29:12.717Z,96.27
2022-11-23T22:31:41.070Z,96.53
2022-11-23T22:34:13.171Z,96.52
2022-11-23T22:36:43.221Z,96.72
2022-11-23T22:39:11.700Z,97.05
2022-11-23T22:41:40.357Z,96.78
2022-11-23T22:44:10.524Z,96.35
2022-11-23T22:46:40.120Z,96.99
2022-11-23T22:49:08.438Z,96.60
2022-11-23T22:51:36.844Z,97.00
2022-11-23T22:54:06.619Z,97.17
2022-11-23T22:56:34.856Z,97.49
2022-11-23T22:59:03.476Z,96.95
2022-11-23T23:01:32.046Z,97.50
2022-11-23T23:04:02.566Z,97.09
2022-11-23T23:06:36.959Z,97.57
2022-11-23T23:09:09.476Z,97.54
2022-11-23T23:11:39.012Z,97.31
2022-11-23T23:14:07.463Z,97.37
2022-11-23T23:16:36.047Z,97.57
2022-11-23T23:19:09.485Z,98.05
2022-11-23T23:21:38.945Z,97.47
2022-11-23T23:24:10.492Z,97.80
2022-11-23T23:26:40.649Z,98.07
2022-11-23T23:29:08.780Z,98.34
2022-11-23T23:31:37.737Z,98.24
2022-11-23T23:34:06.129Z,98.87
2022-11-23T23:36:37.172Z,99.31
2022-11-23T23:39:06.345Z,99.34
2022-11-23T23:41:36.111Z,99.03
2022-11-23T23:44:06.563Z,99.41
2022-11-23T23:46:34.700Z,99.42
2022-11-23T23:49:02.973Z,99.52
2022-11-23T23:51:31.045Z,99.60
2022-11-23T23:53:59.385Z,100.00
2022-11-23T23:56:29.544Z,100.00
2022-11-23T23:59:00.282Z,100.00
